Time;durP1;ratioP1;P1;durP2;ratioP2;P2;SDS_P1;SDS_P2;PMS_P1;PMS_P2;Temp;Humidity;BMP_temperature;BMP_pressure;BME280_temperature;BME280_humidity;BME280_pressure;Samples;Min_cycle;Max_cycle;Signal;HPM_P1;HPM_P2
2022/03/20 00:08:30;;;;;;;20.12;10.98;;;5.80;99.90;;;;;;6754070;88;20211;-79
2022/03/20 00:18:31;;;;;;;24.02;11.50;;;5.50;99.90;;;;;;6748715;88;20536;-79
2022/03/20 00:28:31;;;;;;;19.50;11.23;;;5.50;99.90;;;;;;6746297;88;20245;-78
2022/03/20 00:38:32;;;;;;;22.48;11.43;;;5.40;99.90;;;;;;6747661;88;20260;-79
2022/03/20 00:48:32;;;;;;;22.77;11.45;;;5.40;99.90;;;;;;6744062;88;20551;-79
2022/03/20 00:58:33;;;;;;;20.08;10.75;;;5.50;99.90;;;;;;6746223;88;20210;-79
2022/03/20 01:08:35;;;;;;;20.37;10.52;;;5.60;99.90;;;;;;6746756;88;20225;-79
2022/03/20 01:18:36;;;;;;;19.58;10.70;;;5.70;99.60;;;;;;6746217;88;20243;-80
2022/03/20 01:28:36;;;;;;;21.40;11.12;;;5.80;98.50;;;;;;6741623;88;20188;-78
2022/03/20 01:38:37;;;;;;;21.87;10.27;;;5.60;99.00;;;;;;6741994;88;20225;-79
2022/03/20 01:48:37;;;;;;;20.88;10.52;;;5.60;99.10;;;;;;6744972;88;20904;-78
2022/03/20 01:58:38;;;;;;;21.20;10.35;;;5.60;99.90;;;;;;6745588;88;20196;-79
2022/03/20 02:08:39;;;;;;;18.13;10.27;;;5.40;99.90;;;;;;6744909;88;20216;-78
2022/03/20 02:18:39;;;;;;;19.25;10.00;;;5.20;98.80;;;;;;6743197;88;20505;-79
2022/03/20 02:28:40;;;;;;;21.80;10.15;;;4.90;99.00;;;;;;6744503;88;20210;-79
2022/03/20 02:38:41;;;;;;;20.10;9.90;;;4.70;99.50;;;;;;6745049;88;20218;-78
2022/03/20 02:58:49;;;;;;;20.27;9.43;;;4.30;99.90;;;;;;6724945;88;20259;-76
2022/03/20 03:19:30;;;;;;;23.00;9.77;;;3.90;99.90;;;;;;6748208;88;20777;-77
2022/03/20 03:29:32;;;;;;;19.98;10.52;;;3.90;99.90;;;;;;6734714;88;20262;-76
2022/03/20 03:39:34;;;;;;;22.02;10.38;;;3.80;99.90;;;;;;6727679;88;20194;-76
2022/03/20 03:49:35;;;;;;;19.60;9.65;;;3.60;99.90;;;;;;6741642;88;20248;-76
2022/03/20 03:59:36;;;;;;;23.15;10.07;;;3.60;99.90;;;;;;6739150;88;20172;-77
2022/03/20 04:09:37;;;;;;;21.80;9.95;;;3.70;99.90;;;;;;6733173;88;20154;-77
2022/03/20 04:19:38;;;;;;;18.87;9.57;;;3.60;99.90;;;;;;6729750;88;20250;-77
2022/03/20 04:29:38;;;;;;;20.70;10.27;;;3.90;99.90;;;;;;6731921;88;20196;-76
2022/03/20 04:39:40;;;;;;;20.70;10.70;;;4.00;99.90;;;;;;6733111;88;20234;-76
2022/03/20 05:00:00;;;;;;;27.37;11.70;;;4.10;99.90;;;;;;6740099;88;20162;-76
2022/03/20 05:20:22;;;;;;;21.85;11.18;;;4.40;99.90;;;;;;6732374;88;20187;-76
2022/03/20 05:30:23;;;;;;;20.83;11.45;;;4.20;99.90;;;;;;6732164;88;20184;-76
2022/03/20 05:40:24;;;;;;;20.50;11.02;;;4.50;99.90;;;;;;6689836;88;20181;-77
2022/03/20 05:50:25;;;;;;;25.30;11.52;;;4.70;99.90;;;;;;6742596;88;20248;-78
2022/03/20 06:00:27;;;;;;;23.60;11.77;;;4.50;99.90;;;;;;6723666;88;20174;-76
2022/03/20 06:10:28;;;;;;;24.35;12.32;;;4.60;99.90;;;;;;6746074;88;20213;-77
2022/03/20 06:20:29;;;;;;;22.65;11.82;;;4.80;99.90;;;;;;6738861;88;20824;-77
2022/03/20 06:30:33;;;;;;;23.90;12.02;;;5.20;99.90;;;;;;6734297;88;20189;-77
2022/03/20 06:40:34;;;;;;;27.20;12.95;;;5.20;99.90;;;;;;6741298;88;20158;-77
2022/03/20 06:50:34;;;;;;;24.40;12.93;;;5.40;99.80;;;;;;6727672;88;20989;-76
2022/03/20 07:00:35;;;;;;;25.25;13.18;;;5.80;99.40;;;;;;6734544;88;20622;-76
2022/03/20 07:10:36;;;;;;;25.77;13.27;;;5.90;98.70;;;;;;6705304;88;20511;-76
2022/03/20 07:20:43;;;;;;;26.33;13.35;;;6.10;98.70;;;;;;6726624;88;20968;-78
2022/03/20 07:30:43;;;;;;;30.35;14.05;;;6.30;98.90;;;;;;6724594;88;20271;-78
2022/03/20 07:40:44;;;;;;;25.73;12.90;;;6.60;97.50;;;;;;6728204;88;20383;-78
2022/03/20 07:50:45;;;;;;;29.25;14.48;;;7.00;96.70;;;;;;6725145;88;20211;-78
2022/03/20 08:00:46;;;;;;;26.27;14.48;;;7.10;96.70;;;;;;6736885;88;20263;-79
2022/03/20 08:10:47;;;;;;;28.33;14.20;;;7.50;96.50;;;;;;6726932;88;20225;-79
2022/03/20 08:20:48;;;;;;;24.95;12.70;;;7.50;96.10;;;;;;6724378;88;20199;-80
2022/03/20 08:30:48;;;;;;;27.17;11.75;;;7.50;95.60;;;;;;6720835;88;20189;-80
2022/03/20 08:40:49;;;;;;;27.75;14.15;;;7.90;95.50;;;;;;6723479;88;20661;-81
2022/03/20 08:50:50;;;;;;;25.73;14.05;;;8.20;95.20;;;;;;6719523;88;20199;-79
2022/03/20 09:00:50;;;;;;;25.07;12.27;;;8.30;95.00;;;;;;6715454;88;20246;-80
2022/03/20 09:10:51;;;;;;;20.65;10.77;;;8.20;94.70;;;;;;6718305;88;20511;-79
2022/03/20 09:20:52;;;;;;;25.52;12.63;;;8.40;94.10;;;;;;6713555;88;20181;-77
2022/03/20 09:30:52;;;;;;;24.92;13.23;;;8.60;94.50;;;;;;6715279;88;20208;-77
2022/03/20 09:40:56;;;;;;;27.87;14.02;;;9.40;93.80;;;;;;6709674;88;20256;-77
2022/03/20 09:51:00;;;;;;;24.65;12.40;;;10.10;92.50;;;;;;6707904;88;20227;-77
2022/03/20 10:01:02;;;;;;;29.08;15.30;;;10.10;92.10;;;;;;6716205;88;20299;-78
2022/03/20 10:11:14;;;;;;;29.87;15.35;;;10.40;92.00;;;;;;6711225;88;20192;-79
2022/03/20 10:21:19;;;;;;;26.77;14.10;;;10.20;92.00;;;;;;6708948;88;20191;-78
2022/03/20 10:31:20;;;;;;;28.47;14.37;;;10.30;91.40;;;;;;6711316;88;20321;-76
2022/03/20 10:41:32;;;;;;;28.00;14.05;;;10.50;91.40;;;;;;6710403;88;20184;-75
2022/03/20 10:51:37;;;;;;;29.85;15.63;;;10.30;91.50;;;;;;6710795;88;20347;-77
2022/03/20 11:01:39;;;;;;;27.77;15.40;;;11.30;91.10;;;;;;6692276;88;20183;-76
2022/03/20 11:11:47;;;;;;;24.73;13.20;;;11.90;90.60;;;;;;6719433;88;20178;-76
2022/03/20 11:21:52;;;;;;;26.80;15.18;;;11.60;90.80;;;;;;6721475;88;20194;-77
2022/03/20 11:31:53;;;;;;;20.12;10.50;;;11.90;91.50;;;;;;6708715;88;20218;-78
2022/03/20 11:42:23;;;;;;;27.23;15.88;;;12.90;91.50;;;;;;6708751;88;20963;-77
2022/03/20 11:52:44;;;;;;;27.95;15.30;;;13.40;91.60;;;;;;6711363;88;20201;-76
2022/03/20 12:02:51;;;;;;;31.20;16.50;;;12.60;92.00;;;;;;6707384;88;20200;-76
2022/03/20 12:13:19;;;;;;;32.05;15.80;;;12.30;93.10;;;;;;6707569;88;20181;-76
2022/03/20 12:23:43;;;;;;;29.85;15.98;;;12.10;93.20;;;;;;6704048;88;20661;-76
2022/03/20 12:33:44;;;;;;;23.25;11.68;;;13.00;93.00;;;;;;6705951;88;20194;-77
2022/03/20 12:43:59;;;;;;;24.47;13.80;;;12.80;93.30;;;;;;6680118;88;20218;-77
2022/03/20 12:54:15;;;;;;;23.93;13.37;;;13.20;93.60;;;;;;6696122;88;20489;-76
2022/03/20 13:04:18;;;;;;;26.77;14.70;;;13.10;94.30;;;;;;6697002;88;20275;-77
2022/03/20 13:14:21;;;;;;;27.02;13.57;;;13.40;94.10;;;;;;6713632;88;20187;-76
2022/03/20 13:24:46;;;;;;;22.50;12.43;;;13.50;94.50;;;;;;6711936;88;20209;-77
2022/03/20 13:34:48;;;;;;;17.40;9.30;;;13.50;95.40;;;;;;6718589;88;20815;-78
2022/03/20 13:44:53;;;;;;;18.42;11.25;;;13.30;96.60;;;;;;6707163;88;20204;-79
2022/03/20 13:55:19;;;;;;;17.20;9.40;;;13.40;96.70;;;;;;6704037;88;21148;-77
2022/03/20 14:05:27;;;;;;;20.35;10.13;;;13.30;96.80;;;;;;6703843;88;20766;-77
2022/03/20 14:15:28;;;;;;;18.77;10.48;;;13.30;97.00;;;;;;6705449;88;20223;-76
2022/03/20 14:25:39;;;;;;;19.60;10.25;;;13.00;98.10;;;;;;6707891;88;20204;-77
2022/03/20 14:46:07;;;;;;;19.90;10.75;;;13.00;99.30;;;;;;6701962;88;20258;-79
2022/03/20 14:56:49;;;;;;;19.80;11.55;;;12.80;99.90;;;;;;6751812;77;20652;-81
2022/03/20 15:06:53;;;;;;;21.25;12.35;;;12.70;99.90;;;;;;6753938;88;20189;-80
2022/03/20 15:16:54;;;;;;;22.50;12.25;;;12.70;99.90;;;;;;6755234;88;20206;-80
2022/03/20 15:26:55;;;;;;;22.07;12.17;;;12.50;99.90;;;;;;6752811;88;20232;-79
2022/03/20 15:36:56;;;;;;;20.08;11.98;;;12.30;99.90;;;;;;6748679;88;20541;-80
2022/03/20 15:46:57;;;;;;;23.33;11.23;;;12.30;99.90;;;;;;6737928;88;20716;-81
2022/03/20 15:56:58;;;;;;;21.00;10.20;;;12.30;99.90;;;;;;6753254;87;20823;-81
2022/03/20 16:06:58;;;;;;;21.75;9.63;;;12.30;99.80;;;;;;6749649;88;20184;-81
2022/03/20 16:16:58;;;;;;;22.15;9.90;;;12.20;98.30;;;;;;6752291;88;20634;-79
2022/03/20 16:37:18;;;;;;;22.02;10.60;;;12.20;98.50;;;;;;6743231;88;20216;-79
2022/03/20 16:47:19;;;;;;;19.42;10.05;;;12.20;98.50;;;;;;6742921;88;20218;-79
2022/03/20 16:57:29;;;;;;;18.77;9.05;;;12.10;98.70;;;;;;6744964;88;20210;-81
2022/03/20 17:07:34;;;;;;;16.75;8.60;;;12.10;97.90;;;;;;6732807;88;20291;-80
2022/03/20 17:17:35;;;;;;;16.70;8.10;;;12.10;96.80;;;;;;6730724;88;20202;-80
2022/03/20 17:27:40;;;;;;;14.18;7.43;;;12.10;96.80;;;;;;6731802;88;20215;-80
2022/03/20 17:37:49;;;;;;;13.93;7.32;;;12.00;95.90;;;;;;6730468;88;20981;-78
2022/03/20 17:47:55;;;;;;;17.12;7.12;;;11.90;95.80;;;;;;6722707;88;20177;-79
2022/03/20 17:58:05;;;;;;;15.73;7.40;;;11.80;95.70;;;;;;6739276;88;20177;-79
2022/03/20 18:08:18;;;;;;;15.00;6.62;;;11.60;96.20;;;;;;6743428;88;20315;-78
2022/03/20 18:18:26;;;;;;;14.00;6.72;;;11.60;96.00;;;;;;6739466;88;20207;-79
2022/03/20 18:28:30;;;;;;;13.90;6.97;;;11.50;96.00;;;;;;6746905;88;20712;-79
2022/03/20 18:38:34;;;;;;;15.68;6.28;;;11.40;96.00;;;;;;6759473;88;20194;-81
2022/03/20 18:48:37;;;;;;;14.07;6.20;;;11.30;96.30;;;;;;6760743;87;20295;-80
2022/03/20 18:58:38;;;;;;;13.85;7.10;;;11.20;96.80;;;;;;6750128;87;20224;-79
2022/03/20 19:08:42;;;;;;;13.50;7.00;;;11.20;96.80;;;;;;6730978;88;20169;-80
2022/03/20 19:18:49;;;;;;;17.10;7.53;;;11.10;96.80;;;;;;6728590;88;20305;-80
2022/03/20 19:28:53;;;;;;;15.15;7.70;;;11.20;97.20;;;;;;6727293;88;20197;-79
2022/03/20 19:49:13;;;;;;;15.50;7.55;;;10.70;98.90;;;;;;6716411;88;20232;-79
2022/03/20 19:59:14;;;;;;;16.05;6.60;;;10.70;99.00;;;;;;6725655;88;20702;-79
2022/03/20 20:09:17;;;;;;;14.98;6.72;;;10.70;99.50;;;;;;6724930;88;20679;-78
2022/03/20 20:19:18;;;;;;;14.13;7.22;;;10.80;98.70;;;;;;6717293;88;20318;-78
2022/03/20 20:29:22;;;;;;;14.60;7.75;;;10.60;99.90;;;;;;6721485;88;20196;-78
2022/03/20 20:39:23;;;;;;;15.52;7.05;;;10.40;99.90;;;;;;6721004;88;20212;-79
2022/03/20 20:59:27;;;;;;;17.25;7.00;;;10.40;99.90;;;;;;6749761;88;20644;-77
2022/03/20 21:19:50;;;;;;;18.85;9.18;;;10.60;99.90;;;;;;6728149;88;20229;-78
2022/03/20 21:29:51;;;;;;;22.58;11.27;;;10.40;99.90;;;;;;6723674;88;20664;-76
2022/03/20 21:39:51;;;;;;;23.73;9.88;;;10.30;99.90;;;;;;6726695;88;20193;-76
2022/03/20 21:49:52;;;;;;;20.60;8.80;;;10.10;99.90;;;;;;6731861;88;20243;-76
2022/03/20 21:59:53;;;;;;;20.83;9.55;;;10.20;99.90;;;;;;6726878;88;20282;-77
2022/03/20 22:09:54;;;;;;;19.27;9.43;;;10.10;99.90;;;;;;6721443;88;20263;-76
2022/03/20 22:19:54;;;;;;;16.20;9.20;;;9.90;99.90;;;;;;6723220;88;20197;-77
2022/03/20 22:29:56;;;;;;;18.30;8.93;;;9.80;99.90;;;;;;6731885;88;20682;-77
2022/03/20 22:39:56;;;;;;;18.30;8.98;;;9.80;99.90;;;;;;6728715;88;20952;-76
2022/03/20 22:50:03;;;;;;;22.02;8.98;;;9.80;99.90;;;;;;6727087;88;20350;-77
2022/03/20 23:00:35;;;;;;;19.90;9.73;;;9.60;99.90;;;;;;6716717;88;20743;-77
2022/03/20 23:10:35;;;;;;;18.27;8.98;;;9.60;99.90;;;;;;6722428;88;20236;-76
2022/03/20 23:20:36;;;;;;;22.08;10.18;;;9.50;99.90;;;;;;6726671;88;20617;-77
2022/03/20 23:30:37;;;;;;;21.15;10.63;;;9.50;99.90;;;;;;6727604;88;20232;-76
2022/03/20 23:40:39;;;;;;;20.73;10.23;;;9.40;99.90;;;;;;6728382;88;20182;-76
2022/03/20 23:50:40;;;;;;;18.00;9.75;;;9.30;99.90;;;;;;6731434;88;20205;-76
